METAR / TAF

La liste des METAR et des TAF n’est pas destinée pour un briefing météo pour des raisons techniques (disponibilité, cycle de renouvellement). Il faut plutôt utiliser le skybriefing de Skyguide ou le TAMSI (plateforme de self-briefing météo conçue par MétéoSuisse pour les entreprises dans le domaine de l’aéronautique, questions et demandes d’informations à 

Formulaire de contact

 

METAR Suisse

METAR     LSZH 251420Z 06007KT 360V130 9999 FEW052 22/09 Q1022
               NOSIG=
METAR     LSZH 251450Z 03007KT 360V090 9999 FEW054 22/08 Q1022
               NOSIG=
METAR     LSGG 251420Z 05016KT 9999 FEW060 23/10 Q1019 NOSIG=
METAR     LSGG 251450Z 04016G26KT 9999 FEW060 24/11 Q1019 NOSIG=
METAR     LFSB 251500Z 36009KT 310V040 9999 SCT050 23/10 Q1021
               NOSIG=
METAR     LSZB 251420Z VRB08KT 9999 FEW045 22/11 Q1021 WS R14 NOSIG=
METAR     LSZB 251450Z VRB08G20KT 9999 FEW045 21/10 Q1021 WS R14
               NOSIG=
METAR     LSZA 251420Z 19010KT 9999 SCT060 26/14 Q1016 NOSIG=
METAR     LSZA 251450Z 20011KT 9999 SCT110 25/14 Q1016 NOSIG=
METAR     LSZG 251420Z 06012KT 9999 FEW055 23/09 Q1021 NOSIG=
METAR     LSZG 251450Z 07012KT 9999 FEW055 23/10 Q1021 NOSIG=
METAR     LSZR 251420Z VRB02KT 9999 FEW050 20/10 Q1022 NOSIG RMK L=
METAR     LSZR 251450Z AUTO 06004KT 360V130 CAVOK 20/09 Q1022=
METAR     LSGS 251420Z 24012KT 210V270 9999 FEW080 27/09 Q1016=
METAR     LSGS 251450Z 25012KT 9999 FEW080 28/10 Q1016=
METAR     LSGC 251420Z 06010KT 030V100 9999 FEW035 17/08 Q1023=
METAR     LSGC 251450Z 04012KT 010V090 9999 SCT037 17/08 Q1023=
METAR     LSZC 251420Z 02009KT 340V070 9999 FEW050 21/09 Q1022=
METAR     LSZC 251450Z 35007KT 290V040 9999 FEW050 21/10 Q1021=
METAR     LSZL 251420Z NIL=
METAR     LSZL 251450Z AUTO 26007KT 230V290 9999NDV FEW100 26/15
               Q1015 RMK=
METAR     LSZS 251420Z 31013KT 9999 BKN057 14/02 Q1022 RMK P=
METAR     LSZS 251450Z 35009KT 9999 BKN060 14/01 Q1022 RMK Q=
METAR     LSMA 251420Z NIL=
METAR     LSMA 251450Z 05013KT 010V080 CAVOK 21/11 Q1021 RMK BLU=
METAR     LSMD 251420Z NIL=
METAR     LSMD 251450Z AUTO 13005KT 060V190 9999NDV FEW057 22/09
               Q1022 RMK=
METAR     LSME 251420Z NIL=
METAR     LSME 251450Z NIL=
METAR     LSMM 251420Z NIL=
METAR     LSMM 251450Z 07012G23KT 340V140 9999 FEW050 21/10 Q1020
               RMK BLU+=
METAR     LSMP 251420Z NIL=
METAR     LSMP 251450Z 06013KT 010V100 CAVOK 23/10 Q1021 RMK BLU=
METAR     LSMS 251420Z 24012KT 210V270 9999 FEW080 27/09 Q1016 RMK
               BLU+=
METAR     LSMS 251450Z 25012KT 9999 FEW080 28/10 Q1016 RMK BLU+=
Actualisé le lundi 25 juin 2018 à 17h14

TAF Suisse

TAF     LSZH 251125Z 2512/2618 01007KT 9999 FEW035 SCT052
             TX22/2515Z TN09/2604Z TX25/2615Z TEMPO 2512/2517
             06012KT BECMG 2516/2519 CAVOK BECMG 2520/2523 04004KT
             BECMG 2607/2610 05008KT BECMG 2610/2612 9999 FEW055=
TAF     LSGG 251125Z 2512/2618 04018KT 9999 FEW040 TX24/2515Z
             TN12/2604Z TX26/2615Z BECMG 2518/2520 04005KT CAVOK
             BECMG 2607/2609 04015KT=
TAF     LFSB 251100Z 2512/2612 01005KT 9999 SCT040 BKN060 PROB40
             TEMPO 2514/2518 36010G20KT BECMG 2516/2518 CAVOK=
TAF     LSGS 251125Z 2512/2521 25012KT 9999 FEW070 BECMG 2518/2521
             VRB03KT CAVOK=
TAF     LSZA 251125Z 2512/2521 20007KT 9999 FEW060 PROB30 TEMPO
             2512/2515 19012G25KT PROB40 TEMPO 2519/2521 SHRA
             SCT045TCU BKN050=
TAF     LSZB 251125Z 2512/2521 02007KT 9999 FEW080 PROB30 TEMPO
             2512/2515 03012G25KT BECMG 2516/2519 VRB03KT CAVOK=
TAF     LSZG 251125Z 2512/2521 07010KT 9999 SCT050 TEMPO 2512/2518
             07015G25KT CAVOK BECMG 2518/2520 CAVOK=
TAF     LSZL 251125Z 2512/2521 26005KT 9999 FEW090 PROB30 TEMPO
             2517/2521 SHRA FEW050TCU=
TAF     LSZR 251125Z 2512/2521 VRB03KT 9999 FEW050 BKN070 BECMG
             2515/2518 CAVOK=
TAF     LSGC 251125Z 2512/2521 05010KT 9999 SCT030=
TAF     LSZC 251125Z 2512/2521 VRB03KT 9999 FEW050 SCT080 PROB40
             TEMPO 2512/2518 04010KT TEMPO 2516/2518 CAVOK BECMG
             2518/2521 CAVOK=
TAF     LSZS 251125Z 2512/2521 VRB03KT 9999 SCT050 TX16/2515Z TEMPO
             2512/2519 02010KT PROB40 TEMPO 2512/2516 22010KT=
TAF     LSMA 250925Z 2510/2616 06008KT 9999 FEW050 SCT080 PROB40
             TEMPO 2510/2518 06015G25KT BECMG 2517/2520 CAVOK
             TEMPO 2610/2616 9999 FEW050 PROB30 TEMPO 2611/2616
             06015G25KT=
TAF     LSMD 250925Z 2510/2616 08007KT 9999 FEW025 SCT060 BECMG
             2516/2519 CAVOK TEMPO 2610/2616 9999 FEW050=
TAF     LSME 250925Z 2510/2616 04007KT 9999 FEW050 SCT080 BECMG
             2516/2519 CAVOK TEMPO 2610/2616 9999 FEW050=
TAF     LSMM 250925Z 2510/2616 06010KT 9999 FEW050 SCT080 BECMG
             2516/2519 VRB03KT CAVOK TEMPO 2610/2616 06010KT 9999
             FEW050 PROB40 TEMPO 2610/2616 29010KT=
TAF     LSMP 250925Z 2510/2616 05015KT CAVOK BECMG 2518/2520
             05003KT BECMG 2608/2610 05012KT=
Actualisé le lundi 25 juin 2018 à 15h03